createdAt,value
2018-12-08T00:02:12.442Z,2.77
2018-12-08T00:04:46.619Z,3.05
2018-12-08T00:07:14.404Z,3.08
2018-12-08T00:09:42.620Z,2.80
2018-12-08T00:12:10.701Z,3.98
2018-12-08T00:14:38.407Z,2.92
2018-12-08T00:17:06.350Z,2.40
2018-12-08T00:19:34.627Z,2.45
2018-12-08T00:22:02.361Z,2.00
2018-12-08T00:24:30.663Z,1.90
2018-12-08T00:27:01.093Z,2.20
2018-12-08T00:29:28.944Z,2.10
2018-12-08T00:31:56.768Z,3.08
2018-12-08T00:34:24.657Z,2.17
2018-12-08T00:36:52.469Z,2.10
2018-12-08T00:39:20.100Z,2.55
2018-12-08T00:41:48.080Z,2.10
2018-12-08T00:44:16.189Z,2.87
2018-12-08T00:46:45.507Z,2.30
2018-12-08T00:49:13.665Z,2.00
2018-12-08T00:51:41.835Z,3.37
2018-12-08T00:54:10.000Z,2.90
2018-12-08T00:56:37.827Z,2.50
2018-12-08T00:59:06.098Z,2.50
2018-12-08T01:01:34.486Z,2.90
2018-12-08T01:04:02.131Z,2.50
2018-12-08T01:06:30.503Z,3.35
2018-12-08T01:08:58.759Z,2.30
2018-12-08T01:11:26.614Z,2.70
2018-12-08T01:13:54.275Z,2.70
2018-12-08T01:16:22.192Z,1.87
2018-12-08T01:18:49.952Z,2.80
2018-12-08T01:21:17.793Z,2.47
2018-12-08T01:23:47.339Z,2.25
2018-12-08T01:26:15.655Z,2.42
2018-12-08T01:28:43.800Z,4.33
2018-12-08T01:31:12.623Z,3.52
2018-12-08T01:33:40.290Z,2.47
2018-12-08T01:36:24.675Z,2.70
2018-12-08T01:38:53.142Z,2.22
2018-12-08T01:52:15.295Z,3.22
2018-12-08T01:55:13.091Z,2.75
2018-12-08T01:57:56.206Z,3.35
2018-12-08T02:00:23.835Z,2.30
2018-12-08T02:02:51.529Z,2.47
2018-12-08T02:05:19.197Z,2.80
2018-12-08T02:07:46.833Z,3.00
2018-12-08T02:10:14.593Z,3.10
2018-12-08T02:12:42.196Z,4.00
2018-12-08T02:15:09.828Z,3.72
2018-12-08T02:17:37.625Z,2.65
2018-12-08T02:20:05.456Z,2.80
2018-12-08T02:22:33.282Z,2.20
2018-12-08T02:25:01.431Z,2.60
2018-12-08T02:27:29.118Z,2.10
2018-12-08T02:29:56.902Z,3.52
2018-12-08T02:32:24.524Z,3.12
2018-12-08T02:34:52.928Z,3.12
2018-12-08T02:37:21.076Z,2.08
2018-12-08T02:39:48.692Z,3.20
2018-12-08T02:42:16.328Z,2.62
2018-12-08T02:44:44.312Z,2.15
2018-12-08T02:47:11.934Z,3.15
2018-12-08T02:49:40.239Z,2.33
2018-12-08T02:52:08.605Z,3.77
2018-12-08T02:54:37.195Z,2.30
2018-12-08T02:57:04.896Z,2.00
2018-12-08T02:59:32.553Z,2.60
2018-12-08T03:02:00.222Z,2.40
2018-12-08T03:04:27.895Z,2.67
2018-12-08T03:06:55.461Z,2.30
2018-12-08T03:09:23.161Z,2.50
2018-12-08T03:11:50.817Z,2.15
2018-12-08T03:14:18.544Z,2.37
2018-12-08T03:16:47.213Z,2.75
2018-12-08T03:19:15.086Z,2.37
2018-12-08T03:21:44.413Z,3.02
2018-12-08T03:24:14.190Z,2.60
2018-12-08T03:26:42.126Z,2.17
2018-12-08T03:31:42.660Z,2.60
2018-12-08T03:34:15.418Z,3.55
2018-12-08T03:36:50.423Z,2.90
2018-12-08T03:39:19.579Z,3.47
2018-12-08T03:41:47.345Z,2.55
2018-12-08T03:44:32.432Z,2.98
2018-12-08T03:47:30.879Z,3.67
2018-12-08T03:49:59.455Z,2.40
2018-12-08T03:52:27.608Z,2.42
2018-12-08T03:54:58.443Z,2.70
2018-12-08T03:57:26.560Z,3.17
2018-12-08T03:59:54.430Z,3.35
2018-12-08T04:02:22.521Z,2.42
2018-12-08T04:04:50.851Z,3.47
2018-12-08T04:07:19.616Z,1.90
2018-12-08T04:09:48.012Z,2.40
2018-12-08T04:12:15.905Z,1.92
2018-12-08T04:14:43.817Z,1.60
2018-12-08T04:17:12.568Z,2.22
2018-12-08T04:19:41.303Z,2.40
2018-12-08T04:22:09.791Z,2.05
2018-12-08T04:24:58.635Z,2.05
2018-12-08T04:27:27.616Z,3.90
2018-12-08T04:32:36.377Z,2.10
2018-12-08T04:35:39.234Z,2.22
2018-12-08T04:38:07.516Z,1.85
2018-12-08T04:43:30.305Z,1.90
2018-12-08T04:45:59.338Z,1.90
2018-12-08T04:48:27.194Z,1.62
2018-12-08T04:50:55.954Z,1.70
2018-12-08T04:53:24.580Z,2.30
2018-12-08T04:55:52.340Z,1.40
2018-12-08T04:58:20.264Z,1.75
2018-12-08T05:00:51.234Z,2.45
2018-12-08T05:03:21.533Z,2.30
2018-12-08T05:05:50.437Z,1.90
2018-12-08T05:08:19.440Z,1.65
2018-12-08T05:10:47.292Z,1.90
2018-12-08T05:13:15.701Z,2.00
2018-12-08T05:15:43.722Z,2.00
2018-12-08T05:18:11.834Z,2.02
2018-12-08T05:20:39.725Z,2.10
2018-12-08T05:23:07.650Z,2.10
2018-12-08T05:25:36.469Z,2.30
2018-12-08T05:28:04.890Z,2.05
2018-12-08T05:30:34.089Z,2.33
2018-12-08T05:33:09.926Z,1.70
2018-12-08T05:35:47.327Z,2.00
2018-12-08T05:38:15.662Z,3.08
2018-12-08T05:40:43.505Z,2.12
2018-12-08T05:43:11.333Z,2.00
2018-12-08T05:45:39.555Z,2.27
2018-12-08T05:48:07.314Z,2.05
2018-12-08T05:53:17.267Z,1.67
2018-12-08T05:55:45.480Z,1.72
2018-12-08T05:58:13.459Z,1.87
2018-12-08T06:00:42.142Z,2.37
2018-12-08T06:03:10.221Z,2.00
2018-12-08T06:05:38.436Z,1.98
2018-12-08T06:08:06.255Z,1.90
2018-12-08T06:10:34.878Z,2.58
2018-12-08T06:13:03.706Z,2.33
2018-12-08T06:15:34.777Z,2.00
2018-12-08T06:18:02.550Z,2.90
2018-12-08T06:20:30.697Z,2.50
2018-12-08T06:22:59.906Z,2.30
2018-12-08T06:25:28.226Z,2.35
2018-12-08T06:28:00.108Z,2.20
2018-12-08T06:30:28.073Z,2.37
2018-12-08T06:32:56.151Z,2.17
2018-12-08T06:35:24.123Z,2.30
2018-12-08T06:37:53.337Z,2.37
2018-12-08T06:40:29.029Z,2.42
2018-12-08T06:42:51.079Z,2.50
2018-12-08T06:45:20.060Z,3.02
2018-12-08T06:47:47.826Z,2.70
2018-12-08T06:50:15.967Z,2.90
2018-12-08T06:52:44.153Z,2.62
2018-12-08T06:55:11.942Z,2.58
2018-12-08T06:57:39.812Z,2.92
2018-12-08T07:00:24.936Z,2.87
2018-12-08T07:02:53.014Z,1.90
2018-12-08T07:05:20.758Z,2.12
2018-12-08T07:07:48.650Z,2.65
2018-12-08T07:10:16.433Z,2.92
2018-12-08T07:12:44.517Z,2.50
2018-12-08T07:15:12.466Z,1.47
2018-12-08T07:17:40.279Z,2.35
2018-12-08T07:20:08.428Z,2.60
2018-12-08T07:22:36.363Z,3.25
2018-12-08T07:25:04.415Z,2.67
2018-12-08T07:27:32.553Z,2.10
2018-12-08T07:30:00.447Z,2.45
2018-12-08T07:32:38.577Z,3.92
2018-12-08T07:35:00.681Z,2.10
2018-12-08T07:37:28.488Z,2.65
2018-12-08T07:39:57.623Z,2.62
2018-12-08T07:42:25.577Z,2.55
2018-12-08T07:44:53.444Z,2.52
2018-12-08T07:47:21.942Z,2.22
2018-12-08T07:49:49.890Z,2.30
2018-12-08T07:52:18.080Z,2.05
2018-12-08T07:55:00.951Z,2.17
2018-12-08T07:57:29.400Z,2.20
2018-12-08T08:00:28.835Z,3.00
2018-12-08T08:03:27.442Z,2.35
2018-12-08T08:06:20.866Z,2.75
2018-12-08T08:08:49.692Z,2.50
2018-12-08T08:15:28.414Z,2.25
2018-12-08T08:18:27.135Z,2.42
2018-12-08T08:21:25.621Z,2.47
2018-12-08T08:24:24.503Z,2.67
2018-12-08T08:27:23.115Z,2.65
2018-12-08T08:29:51.590Z,2.60
2018-12-08T08:32:19.716Z,2.47
2018-12-08T08:34:47.586Z,2.00
2018-12-08T08:37:15.445Z,2.83
2018-12-08T08:39:44.661Z,2.35
2018-12-08T08:42:12.722Z,2.40
2018-12-08T08:44:42.155Z,2.05
2018-12-08T08:47:10.183Z,3.55
2018-12-08T08:49:38.579Z,3.42
2018-12-08T08:52:06.365Z,2.42
2018-12-08T08:54:34.256Z,2.37
2018-12-08T08:57:02.186Z,2.90
2018-12-08T08:59:31.043Z,2.98
2018-12-08T09:01:59.072Z,2.87
2018-12-08T09:04:28.208Z,2.92
2018-12-08T09:06:56.178Z,2.27
2018-12-08T09:09:24.194Z,2.65
2018-12-08T09:11:53.208Z,2.20
2018-12-08T09:14:21.050Z,2.67
2018-12-08T09:16:48.847Z,3.02
2018-12-08T09:19:16.673Z,2.75
2018-12-08T09:21:44.533Z,2.05
2018-12-08T09:24:12.309Z,2.67
2018-12-08T09:26:40.620Z,2.83
2018-12-08T09:29:08.749Z,2.55
2018-12-08T09:31:39.078Z,2.22
2018-12-08T09:45:29.575Z,2.90
2018-12-08T09:47:58.557Z,2.30
2018-12-08T09:50:26.393Z,3.12
2018-12-08T09:53:15.358Z,1.85
2018-12-08T09:55:44.095Z,2.42
2018-12-08T09:58:12.336Z,2.30
2018-12-08T10:00:40.384Z,2.20
2018-12-08T10:03:08.221Z,2.65
2018-12-08T10:05:37.308Z,2.70
2018-12-08T10:08:06.805Z,3.27
2018-12-08T10:10:35.998Z,2.55
2018-12-08T10:13:04.926Z,3.05
2018-12-08T10:15:33.193Z,2.45
2018-12-08T10:18:02.312Z,3.27
2018-12-08T10:20:30.301Z,3.05
2018-12-08T10:22:58.063Z,3.05
2018-12-08T10:25:25.989Z,2.75
2018-12-08T10:27:54.105Z,3.10
2018-12-08T10:30:22.845Z,2.47
2018-12-08T10:32:51.103Z,2.00
2018-12-08T10:35:18.895Z,2.37
2018-12-08T10:37:46.688Z,2.15
2018-12-08T10:40:15.058Z,3.87
2018-12-08T10:42:42.852Z,2.70
2018-12-08T10:45:11.605Z,2.72
2018-12-08T10:47:39.351Z,2.85
2018-12-08T10:50:08.895Z,1.95
2018-12-08T10:52:36.768Z,2.05
2018-12-08T10:55:04.787Z,1.92
2018-12-08T10:57:32.626Z,1.57
2018-12-08T11:00:00.520Z,2.00
2018-12-08T11:02:33.958Z,2.60
2018-12-08T11:05:01.701Z,2.00
2018-12-08T11:07:29.492Z,2.35
2018-12-08T11:09:57.298Z,3.05
2018-12-08T11:12:25.101Z,2.05
2018-12-08T11:15:00.448Z,2.50
2018-12-08T11:17:22.833Z,2.95
2018-12-08T11:19:51.533Z,2.60
2018-12-08T11:22:19.402Z,2.00
2018-12-08T11:24:47.362Z,1.67
2018-12-08T11:27:17.576Z,2.15
2018-12-08T11:29:45.366Z,2.22
2018-12-08T11:32:13.165Z,2.65
2018-12-08T11:34:41.878Z,1.90
2018-12-08T11:37:09.558Z,2.05
2018-12-08T11:39:37.434Z,2.58
2018-12-08T11:42:05.294Z,1.70
2018-12-08T11:44:33.300Z,1.90
2018-12-08T11:47:01.337Z,2.40
2018-12-08T11:49:29.176Z,1.85
2018-12-08T11:51:57.020Z,2.65
2018-12-08T11:54:24.911Z,2.83
2018-12-08T11:56:53.035Z,2.10
2018-12-08T11:59:20.844Z,2.52
2018-12-08T12:01:48.743Z,1.72
2018-12-08T12:04:16.622Z,2.42
2018-12-08T12:06:44.411Z,1.98
2018-12-08T12:09:12.344Z,2.35
2018-12-08T12:11:41.186Z,2.90
2018-12-08T12:14:08.929Z,1.90
2018-12-08T12:16:36.832Z,2.08
2018-12-08T12:19:04.695Z,2.52
2018-12-08T12:21:32.499Z,2.77
2018-12-08T12:24:00.582Z,1.70
2018-12-08T12:26:28.417Z,1.70
2018-12-08T12:28:56.218Z,1.70
2018-12-08T12:31:24.069Z,1.32
2018-12-08T12:33:52.401Z,2.20
2018-12-08T12:36:20.178Z,2.10
2018-12-08T12:38:47.960Z,2.15
2018-12-08T12:41:15.750Z,2.00
2018-12-08T12:43:43.558Z,2.58
2018-12-08T12:46:11.356Z,1.92
2018-12-08T12:48:40.109Z,2.40
2018-12-08T12:51:07.922Z,2.80
2018-12-08T12:53:35.861Z,1.75
2018-12-08T12:56:04.789Z,1.62
2018-12-08T12:58:32.643Z,1.98
2018-12-08T13:01:00.435Z,1.60
2018-12-08T13:03:28.487Z,2.12
2018-12-08T13:05:56.280Z,2.62
2018-12-08T13:08:26.069Z,1.85
2018-12-08T13:10:53.855Z,1.42
2018-12-08T13:13:21.701Z,1.67
2018-12-08T13:15:49.470Z,1.70
2018-12-08T13:18:17.340Z,1.40
2018-12-08T13:20:45.339Z,1.98
2018-12-08T13:23:13.181Z,1.92
2018-12-08T13:25:41.007Z,1.95
2018-12-08T13:28:08.789Z,1.45
2018-12-08T13:30:43.645Z,1.50
2018-12-08T13:33:11.506Z,1.90
2018-12-08T13:35:50.904Z,1.65
2018-12-08T13:38:19.330Z,1.90
2018-12-08T13:40:47.301Z,2.27
2018-12-08T13:43:15.154Z,1.50
2018-12-08T13:45:43.852Z,2.17
2018-12-08T13:48:13.218Z,2.00
2018-12-08T13:50:41.293Z,1.90
2018-12-08T13:53:09.237Z,1.75
2018-12-08T13:55:37.557Z,1.75
2018-12-08T13:58:05.423Z,1.60
2018-12-08T14:00:33.403Z,1.70
2018-12-08T14:03:01.174Z,1.50
2018-12-08T14:05:29.080Z,1.70
2018-12-08T14:07:57.063Z,2.30
2018-12-08T14:10:24.839Z,1.70
2018-12-08T14:12:52.780Z,2.37
2018-12-08T14:15:20.644Z,2.02
2018-12-08T14:17:48.369Z,2.10
2018-12-08T14:20:22.929Z,1.95
2018-12-08T14:22:54.484Z,2.30
2018-12-08T14:25:23.783Z,2.08
2018-12-08T14:27:51.549Z,2.80
2018-12-08T14:30:19.416Z,3.75
2018-12-08T14:32:47.302Z,2.08
2018-12-08T14:35:15.129Z,2.42
2018-12-08T14:37:43.573Z,3.20
2018-12-08T14:40:11.423Z,2.75
2018-12-08T14:42:40.131Z,2.10
2018-12-08T14:45:08.201Z,3.10
2018-12-08T14:47:36.197Z,2.85
2018-12-08T14:50:04.719Z,3.25
2018-12-08T14:52:32.542Z,4.72
2018-12-08T14:55:00.239Z,4.20
2018-12-08T14:57:29.006Z,3.72
2018-12-08T14:59:56.814Z,2.98
2018-12-08T15:02:24.620Z,4.12
2018-12-08T15:04:52.497Z,4.00
2018-12-08T15:07:20.262Z,3.17
2018-12-08T15:09:48.022Z,2.83
2018-12-08T15:12:15.958Z,3.00
2018-12-08T15:14:43.700Z,2.90
2018-12-08T15:17:11.492Z,3.10
2018-12-08T15:19:39.296Z,3.50
2018-12-08T15:22:07.065Z,3.05
2018-12-08T15:24:35.847Z,3.92
2018-12-08T15:27:03.608Z,5.15
2018-12-08T15:29:31.506Z,3.05
2018-12-08T15:31:59.383Z,2.35
2018-12-08T15:34:27.168Z,2.80
2018-12-08T15:36:55.030Z,2.55
2018-12-08T15:39:22.748Z,2.75
2018-12-08T15:41:50.434Z,3.42
2018-12-08T15:44:18.499Z,3.17
2018-12-08T15:46:46.243Z,3.37
2018-12-08T15:49:14.299Z,3.08
2018-12-08T15:51:42.123Z,3.08
2018-12-08T15:54:10.374Z,2.90
2018-12-08T15:56:38.265Z,2.80
2018-12-08T15:59:06.871Z,2.95
2018-12-08T16:01:34.644Z,3.10
2018-12-08T16:04:02.476Z,2.65
2018-12-08T16:06:30.239Z,3.33
2018-12-08T16:08:59.123Z,3.77
2018-12-08T16:11:27.017Z,3.60
2018-12-08T16:13:54.751Z,3.37
2018-12-08T16:16:23.546Z,3.47
2018-12-08T16:18:52.785Z,2.55
2018-12-08T16:21:20.829Z,2.50
2018-12-08T16:23:48.851Z,3.30
2018-12-08T16:26:16.755Z,2.95
2018-12-08T16:28:45.455Z,2.35
2018-12-08T16:31:13.245Z,2.90
2018-12-08T16:33:41.250Z,2.47
2018-12-08T16:36:09.049Z,2.98
2018-12-08T16:38:37.298Z,3.33
2018-12-08T16:41:05.489Z,2.42
2018-12-08T16:43:33.235Z,3.10
2018-12-08T16:46:01.668Z,2.87
2018-12-08T16:48:29.407Z,2.95
2018-12-08T16:50:57.170Z,3.12
2018-12-08T16:53:25.177Z,3.65
2018-12-08T16:55:52.961Z,2.27
2018-12-08T16:58:20.784Z,2.12
2018-12-08T17:00:48.658Z,1.80
2018-12-08T17:03:16.577Z,2.35
2018-12-08T17:05:44.353Z,2.65
2018-12-08T17:08:12.335Z,1.90
2018-12-08T17:10:40.082Z,2.40
2018-12-08T17:13:07.845Z,2.20
2018-12-08T17:15:36.916Z,2.17
2018-12-08T17:18:04.714Z,2.58
2018-12-08T17:20:32.503Z,2.27
2018-12-08T17:23:00.279Z,3.42
2018-12-08T17:25:28.031Z,2.40
2018-12-08T17:27:55.790Z,2.95
2018-12-08T17:30:23.589Z,3.65
2018-12-08T17:32:51.393Z,3.75
2018-12-08T17:35:21.768Z,2.17
2018-12-08T17:37:49.500Z,3.08
2018-12-08T17:40:17.315Z,3.17
2018-12-08T17:42:47.202Z,3.47
2018-12-08T17:45:15.039Z,3.10
2018-12-08T17:47:42.850Z,2.55
2018-12-08T17:50:10.617Z,2.75
2018-12-08T17:52:38.413Z,2.35
2018-12-08T17:55:06.612Z,2.52
2018-12-08T17:57:34.513Z,2.40
2018-12-08T18:00:02.689Z,2.83
2018-12-08T18:02:30.933Z,3.58
2018-12-08T18:04:58.982Z,3.00
2018-12-08T18:07:26.768Z,2.72
2018-12-08T18:09:55.070Z,3.00
2018-12-08T18:12:22.931Z,2.58
2018-12-08T18:14:50.708Z,2.00
2018-12-08T18:17:18.583Z,2.35
2018-12-08T18:19:46.445Z,2.60
2018-12-08T18:22:15.292Z,2.85
2018-12-08T18:24:43.047Z,3.17
2018-12-08T18:27:11.077Z,3.00
2018-12-08T18:29:38.893Z,3.05
2018-12-08T18:32:06.767Z,2.33
2018-12-08T18:34:34.494Z,3.62
2018-12-08T18:37:02.428Z,2.70
2018-12-08T18:39:30.199Z,3.37
2018-12-08T18:41:58.109Z,3.60
2018-12-08T18:44:25.814Z,2.62
2018-12-08T18:46:53.720Z,2.45
2018-12-08T18:49:21.645Z,2.50
2018-12-08T18:51:49.459Z,2.60
2018-12-08T18:54:17.246Z,2.65
2018-12-08T18:56:45.010Z,2.30
2018-12-08T18:59:12.716Z,2.27
2018-12-08T19:01:40.562Z,3.25
2018-12-08T19:04:08.438Z,3.00
2018-12-08T19:06:36.251Z,2.65
2018-12-08T19:09:05.990Z,2.80
2018-12-08T19:11:34.490Z,2.37
2018-12-08T19:14:03.130Z,2.65
2018-12-08T19:16:30.964Z,2.80
2018-12-08T19:18:58.737Z,2.42
2018-12-08T19:21:26.468Z,2.52
2018-12-08T19:23:54.136Z,1.82
2018-12-08T19:26:23.702Z,2.12
2018-12-08T19:28:51.570Z,2.05
2018-12-08T19:31:19.414Z,2.75
2018-12-08T19:33:47.232Z,2.30
2018-12-08T19:36:16.388Z,2.80
2018-12-08T19:38:44.413Z,2.27
2018-12-08T19:41:12.378Z,1.90
2018-12-08T19:43:40.203Z,1.98
2018-12-08T19:46:08.071Z,2.17
2018-12-08T19:48:35.951Z,1.80
2018-12-08T19:51:03.832Z,2.40
2018-12-08T19:53:31.717Z,2.47
2018-12-08T19:55:59.542Z,1.77
2018-12-08T19:58:27.879Z,1.65
2018-12-08T20:00:55.624Z,1.65
2018-12-08T20:03:23.422Z,1.70
2018-12-08T20:05:51.432Z,1.90
2018-12-08T20:08:19.927Z,1.42
2018-12-08T20:10:48.067Z,1.70
2018-12-08T20:13:16.402Z,1.55
2018-12-08T20:15:45.509Z,1.50
2018-12-08T20:18:13.382Z,1.22
2018-12-08T20:20:41.224Z,1.30
2018-12-08T20:23:09.016Z,2.08
2018-12-08T20:25:36.908Z,1.35
2018-12-08T20:28:04.674Z,1.75
2018-12-08T20:30:32.414Z,1.50
2018-12-08T20:33:00.365Z,1.27
2018-12-08T20:35:28.173Z,1.60
2018-12-08T20:37:55.962Z,1.60
2018-12-08T20:40:23.832Z,1.30
2018-12-08T20:42:51.643Z,2.00
2018-12-08T20:45:19.438Z,1.60
2018-12-08T20:47:47.365Z,1.50
2018-12-08T20:50:15.347Z,1.50
2018-12-08T20:52:43.084Z,1.42
2018-12-08T20:55:12.182Z,1.20
2018-12-08T20:57:39.916Z,2.00
2018-12-08T21:00:07.862Z,1.75
2018-12-08T21:02:35.779Z,1.62
2018-12-08T21:05:03.902Z,1.67
2018-12-08T21:07:32.991Z,1.45
2018-12-08T21:10:01.250Z,1.67
2018-12-08T21:12:29.057Z,1.60
2018-12-08T21:14:56.914Z,1.75
2018-12-08T21:17:24.650Z,1.55
2018-12-08T21:19:52.465Z,1.37
2018-12-08T21:22:20.364Z,1.40
2018-12-08T21:24:48.992Z,1.45
2018-12-08T21:27:16.795Z,1.60
2018-12-08T21:29:44.746Z,1.80
2018-12-08T21:32:12.509Z,1.60
2018-12-08T21:34:40.192Z,1.82
2018-12-08T21:37:09.006Z,1.45
2018-12-08T21:39:36.891Z,1.45
2018-12-08T21:42:04.606Z,1.62
2018-12-08T21:44:32.382Z,1.10
2018-12-08T21:47:00.435Z,1.40
2018-12-08T21:49:28.269Z,1.75
2018-12-08T21:51:56.115Z,1.50
2018-12-08T21:54:23.812Z,1.98
2018-12-08T21:56:51.620Z,1.70
2018-12-08T21:59:19.389Z,1.40
2018-12-08T22:01:47.127Z,1.50
2018-12-08T22:04:15.068Z,1.40
2018-12-08T22:06:42.896Z,1.55
2018-12-08T22:09:12.173Z,1.35
2018-12-08T22:11:39.951Z,1.20
2018-12-08T22:14:07.850Z,1.30
2018-12-08T22:16:35.776Z,1.30
2018-12-08T22:19:04.443Z,1.20
2018-12-08T22:21:32.226Z,1.20
2018-12-08T22:24:00.094Z,1.35
2018-12-08T22:26:27.822Z,1.17
2018-12-08T22:28:55.675Z,1.75
2018-12-08T22:31:23.519Z,1.57
2018-12-08T22:33:51.367Z,1.52
2018-12-08T22:36:19.122Z,1.32
2018-12-08T22:38:46.968Z,1.40
2018-12-08T22:41:15.302Z,1.47
2018-12-08T22:43:43.998Z,1.37
2018-12-08T22:46:11.820Z,1.47
2018-12-08T22:48:39.623Z,1.47
2018-12-08T22:51:08.528Z,1.70
2018-12-08T22:53:36.983Z,1.85
2018-12-08T22:56:04.860Z,1.07
2018-12-08T22:58:33.885Z,1.47
2018-12-08T23:01:09.040Z,1.40
2018-12-08T23:03:36.779Z,1.10
2018-12-08T23:06:04.586Z,1.37
2018-12-08T23:08:32.329Z,2.33
2018-12-08T23:11:01.424Z,1.57
2018-12-08T23:13:29.609Z,1.27
2018-12-08T23:15:57.345Z,1.57
2018-12-08T23:18:25.122Z,1.00
2018-12-08T23:20:52.987Z,1.50
2018-12-08T23:23:20.738Z,1.20
2018-12-08T23:25:48.585Z,1.32
2018-12-08T23:28:16.306Z,1.40
2018-12-08T23:30:45.107Z,1.10
2018-12-08T23:33:12.861Z,1.20
2018-12-08T23:35:40.686Z,1.27
2018-12-08T23:38:08.588Z,1.25
2018-12-08T23:40:37.780Z,1.00
2018-12-08T23:43:05.709Z,1.47
2018-12-08T23:45:33.576Z,1.17
2018-12-08T23:48:01.371Z,1.00
2018-12-08T23:50:30.346Z,1.10
2018-12-08T23:52:59.326Z,1.20
2018-12-08T23:55:27.737Z,1.25
2018-12-08T23:57:55.646Z,1.32
